Hanzhong, China
Current Conditions -  °F | °C
As of 10:00 AM on Saturday 29 Nov 2014 (Local Time) from ZLXY Reporting Station
Haze Haze  
Wind Chill: 40°   Ceiling: 7000
Heat Index: 45°   Visibility: 1.2mi
Dew Point: 39°   Wind: 9mph
Humidity: 81%   Direction: 60°ENE
Pressure: 30.06"   Gusts: NA
Location:  33.13°N, 107.03°E
Report Text: ZLXY 290200Z 06004MPS 2000 BR OVC070 07/04 Q1018 NOSIG
Loading
Personal Weather Stations






























Interactive Weather Map New forecast layout! Learn more

10-Day Weather Forecast

Advertisements
Track Severe Weather on mobile